sensor_id;sensor_type;location;lat;lon;timestamp;P1;durP1;ratioP1;P2;durP2;ratioP2
23140;SDS011;11739;54.750;9.124;2022-08-02T00:07:43;2.00;;;1.80;;
23140;SDS011;11739;54.750;9.124;2022-08-02T00:14:38;2.13;;;1.65;;
23140;SDS011;11739;54.750;9.124;2022-08-02T00:17:05;1.90;;;1.60;;
23140;SDS011;11739;54.750;9.124;2022-08-02T00:23:24;3.65;;;2.22;;
23140;SDS011;11739;54.750;9.124;2022-08-02T00:47:02;3.03;;;2.13;;
23140;SDS011;11739;54.750;9.124;2022-08-02T01:24:23;1.98;;;1.30;;
23140;SDS011;11739;54.750;9.124;2022-08-02T01:27:36;1.70;;;1.30;;
23140;SDS011;11739;54.750;9.124;2022-08-02T01:45:00;2.53;;;2.25;;
23140;SDS011;11739;54.750;9.124;2022-08-02T01:58:58;5.65;;;1.70;;
23140;SDS011;11739;54.750;9.124;2022-08-02T02:09:54;10.73;;;2.28;;
23140;SDS011;11739;54.750;9.124;2022-08-02T02:12:22;6.97;;;3.00;;
23140;SDS011;11739;54.750;9.124;2022-08-02T02:14:49;27.08;;;4.10;;
23140;SDS011;11739;54.750;9.124;2022-08-02T02:21:02;37.25;;;4.47;;
23140;SDS011;11739;54.750;9.124;2022-08-02T02:27:15;2.97;;;2.60;;
23140;SDS011;11739;54.750;9.124;2022-08-02T02:41:26;3.33;;;2.78;;
23140;SDS011;11739;54.750;9.124;2022-08-02T02:51:39;5.57;;;3.13;;
23140;SDS011;11739;54.750;9.124;2022-08-02T02:54:33;5.13;;;3.17;;
23140;SDS011;11739;54.750;9.124;2022-08-02T03:00:39;4.18;;;3.08;;
23140;SDS011;11739;54.750;9.124;2022-08-02T03:14:55;3.88;;;3.42;;
23140;SDS011;11739;54.750;9.124;2022-08-02T03:21:19;3.10;;;2.53;;
23140;SDS011;11739;54.750;9.124;2022-08-02T03:38:45;4.47;;;3.30;;
23140;SDS011;11739;54.750;9.124;2022-08-02T03:45:09;5.45;;;4.10;;
23140;SDS011;11739;54.750;9.124;2022-08-02T03:48:10;5.00;;;4.00;;
23140;SDS011;11739;54.750;9.124;2022-08-02T03:51:17;4.10;;;3.35;;
23140;SDS011;11739;54.750;9.124;2022-08-02T04:05:18;5.65;;;3.60;;
23140;SDS011;11739;54.750;9.124;2022-08-02T04:11:37;5.90;;;3.80;;
23140;SDS011;11739;54.750;9.124;2022-08-02T04:17:47;4.60;;;3.83;;
23140;SDS011;11739;54.750;9.124;2022-08-02T04:20:31;8.02;;;4.55;;
23140;SDS011;11739;54.750;9.124;2022-08-02T04:27:19;5.72;;;3.75;;
23140;SDS011;11739;54.750;9.124;2022-08-02T04:33:56;4.55;;;3.80;;
23140;SDS011;11739;54.750;9.124;2022-08-02T04:36:37;5.60;;;4.07;;
23140;SDS011;11739;54.750;9.124;2022-08-02T04:49:33;6.18;;;3.78;;
23140;SDS011;11739;54.750;9.124;2022-08-02T04:56:05;5.25;;;4.05;;
23140;SDS011;11739;54.750;9.124;2022-08-02T05:10:56;6.05;;;3.97;;
23140;SDS011;11739;54.750;9.124;2022-08-02T05:20:29;7.18;;;4.70;;
23140;SDS011;11739;54.750;9.124;2022-08-02T05:22:55;8.02;;;4.57;;
23140;SDS011;11739;54.750;9.124;2022-08-02T05:25:22;5.20;;;4.07;;
23140;SDS011;11739;54.750;9.124;2022-08-02T05:27:48;8.25;;;4.53;;
23140;SDS011;11739;54.750;9.124;2022-08-02T05:30:15;4.75;;;3.88;;
23140;SDS011;11739;54.750;9.124;2022-08-02T05:36:39;7.88;;;3.70;;
23140;SDS011;11739;54.750;9.124;2022-08-02T05:39:23;6.22;;;3.60;;
23140;SDS011;11739;54.750;9.124;2022-08-02T05:56:24;5.93;;;3.15;;
23140;SDS011;11739;54.750;9.124;2022-08-02T06:10:28;6.05;;;2.97;;
23140;SDS011;11739;54.750;9.124;2022-08-02T06:13:00;6.97;;;3.10;;
23140;SDS011;11739;54.750;9.124;2022-08-02T06:15:46;7.95;;;2.90;;
23140;SDS011;11739;54.750;9.124;2022-08-02T06:18:58;6.18;;;2.20;;
23140;SDS011;11739;54.750;9.124;2022-08-02T06:28:41;6.90;;;2.55;;
23140;SDS011;11739;54.750;9.124;2022-08-02T06:31:09;7.05;;;2.30;;
23140;SDS011;11739;54.750;9.124;2022-08-02T06:37:51;5.55;;;1.77;;
23140;SDS011;11739;54.750;9.124;2022-08-02T07:01:32;5.55;;;1.98;;
23140;SDS011;11739;54.750;9.124;2022-08-02T07:04:13;6.82;;;1.95;;
23140;SDS011;11739;54.750;9.124;2022-08-02T07:06:52;10.38;;;1.90;;
23140;SDS011;11739;54.750;9.124;2022-08-02T07:17:06;6.95;;;2.05;;
23140;SDS011;11739;54.750;9.124;2022-08-02T07:30:18;5.22;;;1.92;;
23140;SDS011;11739;54.750;9.124;2022-08-02T07:36:51;6.95;;;2.10;;
23140;SDS011;11739;54.750;9.124;2022-08-02T07:39:19;5.88;;;2.15;;
23140;SDS011;11739;54.750;9.124;2022-08-02T07:42:04;5.63;;;2.00;;
23140;SDS011;11739;54.750;9.124;2022-08-02T07:48:33;3.60;;;1.80;;
23140;SDS011;11739;54.750;9.124;2022-08-02T07:50:59;7.32;;;2.17;;
23140;SDS011;11739;54.750;9.124;2022-08-02T07:53:26;6.32;;;2.25;;
23140;SDS011;11739;54.750;9.124;2022-08-02T07:59:53;6.65;;;2.05;;
23140;SDS011;11739;54.750;9.124;2022-08-02T08:13:40;6.28;;;2.20;;
23140;SDS011;11739;54.750;9.124;2022-08-02T08:22:19;6.55;;;2.35;;
23140;SDS011;11739;54.750;9.124;2022-08-02T08:32:20;5.90;;;1.90;;
23140;SDS011;11739;54.750;9.124;2022-08-02T08:38:28;5.82;;;2.03;;
23140;SDS011;11739;54.750;9.124;2022-08-02T08:47:04;6.45;;;1.90;;
23140;SDS011;11739;54.750;9.124;2022-08-02T08:49:39;4.65;;;2.03;;
23140;SDS011;11739;54.750;9.124;2022-08-02T08:52:18;3.45;;;1.52;;
23140;SDS011;11739;54.750;9.124;2022-08-02T08:54:51;4.03;;;1.83;;
23140;SDS011;11739;54.750;9.124;2022-08-02T08:57:30;13.43;;;2.63;;
23140;SDS011;11739;54.750;9.124;2022-08-02T08:59:57;5.70;;;1.67;;
23140;SDS011;11739;54.750;9.124;2022-08-02T09:17:33;3.63;;;1.63;;
23140;SDS011;11739;54.750;9.124;2022-08-02T09:20:53;5.10;;;1.63;;
23140;SDS011;11739;54.750;9.124;2022-08-02T09:32:45;6.05;;;1.85;;
23140;SDS011;11739;54.750;9.124;2022-08-02T09:43:03;5.07;;;1.83;;
23140;SDS011;11739;54.750;9.124;2022-08-02T09:45:35;6.18;;;1.90;;
23140;SDS011;11739;54.750;9.124;2022-08-02T09:52:10;6.05;;;1.50;;
23140;SDS011;11739;54.750;9.124;2022-08-02T09:58:24;3.03;;;1.60;;
23140;SDS011;11739;54.750;9.124;2022-08-02T10:04:35;5.13;;;1.55;;
23140;SDS011;11739;54.750;9.124;2022-08-02T10:07:16;4.20;;;1.95;;
23140;SDS011;11739;54.750;9.124;2022-08-02T10:13:32;4.53;;;1.92;;
23140;SDS011;11739;54.750;9.124;2022-08-02T10:17:19;3.85;;;1.67;;
23140;SDS011;11739;54.750;9.124;2022-08-02T10:20:00;4.22;;;2.00;;
23140;SDS011;11739;54.750;9.124;2022-08-02T10:22:47;3.30;;;1.50;;
23140;SDS011;11739;54.750;9.124;2022-08-02T10:34:45;4.97;;;1.80;;
23140;SDS011;11739;54.750;9.124;2022-08-02T10:53:34;4.05;;;1.60;;
23140;SDS011;11739;54.750;9.124;2022-08-02T10:56:10;3.03;;;1.33;;
23140;SDS011;11739;54.750;9.124;2022-08-02T10:58:37;3.65;;;1.50;;
23140;SDS011;11739;54.750;9.124;2022-08-02T11:04:11;2.85;;;1.38;;
23140;SDS011;11739;54.750;9.124;2022-08-02T11:21:36;3.22;;;1.48;;
23140;SDS011;11739;54.750;9.124;2022-08-02T11:28:32;4.88;;;1.52;;
23140;SDS011;11739;54.750;9.124;2022-08-02T11:57:23;4.05;;;1.45;;
23140;SDS011;11739;54.750;9.124;2022-08-02T12:00:33;2.50;;;1.23;;
23140;SDS011;11739;54.750;9.124;2022-08-02T12:03:02;3.35;;;1.40;;
23140;SDS011;11739;54.750;9.124;2022-08-02T12:06:00;3.03;;;1.23;;
23140;SDS011;11739;54.750;9.124;2022-08-02T12:08:48;3.20;;;1.60;;
23140;SDS011;11739;54.750;9.124;2022-08-02T12:14:16;4.03;;;1.40;;
23140;SDS011;11739;54.750;9.124;2022-08-02T12:17:59;4.70;;;1.50;;
23140;SDS011;11739;54.750;9.124;2022-08-02T12:25:13;12.35;;;1.73;;
23140;SDS011;11739;54.750;9.124;2022-08-02T12:31:48;2.72;;;1.40;;
23140;SDS011;11739;54.750;9.124;2022-08-02T12:34:44;4.28;;;1.38;;
23140;SDS011;11739;54.750;9.124;2022-08-02T12:52:39;4.20;;;1.50;;
23140;SDS011;11739;54.750;9.124;2022-08-02T12:59:56;2.38;;;1.33;;
23140;SDS011;11739;54.750;9.124;2022-08-02T13:02:33;2.72;;;1.20;;
23140;SDS011;11739;54.750;9.124;2022-08-02T13:16:42;4.63;;;1.33;;
23140;SDS011;11739;54.750;9.124;2022-08-02T13:23:16;1.85;;;1.40;;
23140;SDS011;11739;54.750;9.124;2022-08-02T13:29:05;3.28;;;1.52;;
23140;SDS011;11739;54.750;9.124;2022-08-02T13:35:21;3.63;;;1.85;;
23140;SDS011;11739;54.750;9.124;2022-08-02T13:37:47;2.83;;;1.67;;
23140;SDS011;11739;54.750;9.124;2022-08-02T13:40:14;4.20;;;1.77;;
23140;SDS011;11739;54.750;9.124;2022-08-02T13:42:48;4.35;;;1.58;;
23140;SDS011;11739;54.750;9.124;2022-08-02T13:45:15;2.92;;;1.40;;
23140;SDS011;11739;54.750;9.124;2022-08-02T13:49:01;2.05;;;1.60;;
23140;SDS011;11739;54.750;9.124;2022-08-02T13:51:28;3.40;;;1.75;;
23140;SDS011;11739;54.750;9.124;2022-08-02T13:53:54;2.85;;;1.85;;
23140;SDS011;11739;54.750;9.124;2022-08-02T13:56:21;5.85;;;1.95;;
23140;SDS011;11739;54.750;9.124;2022-08-02T13:59:01;2.95;;;1.73;;
23140;SDS011;11739;54.750;9.124;2022-08-02T14:01:49;2.90;;;1.58;;
23140;SDS011;11739;54.750;9.124;2022-08-02T14:04:15;3.72;;;1.60;;
23140;SDS011;11739;54.750;9.124;2022-08-02T14:06:42;2.38;;;1.63;;
23140;SDS011;11739;54.750;9.124;2022-08-02T14:09:08;6.65;;;1.70;;
23140;SDS011;11739;54.750;9.124;2022-08-02T14:14:08;3.80;;;2.00;;
23140;SDS011;11739;54.750;9.124;2022-08-02T14:16:42;3.53;;;1.92;;
23140;SDS011;11739;54.750;9.124;2022-08-02T14:19:10;3.65;;;2.10;;
23140;SDS011;11739;54.750;9.124;2022-08-02T14:21:43;3.10;;;2.00;;
23140;SDS011;11739;54.750;9.124;2022-08-02T14:24:13;4.47;;;2.60;;
23140;SDS011;11739;54.750;9.124;2022-08-02T14:26:43;4.50;;;2.80;;
23140;SDS011;11739;54.750;9.124;2022-08-02T14:29:11;3.90;;;2.40;;
23140;SDS011;11739;54.750;9.124;2022-08-02T14:31:38;6.72;;;2.85;;
23140;SDS011;11739;54.750;9.124;2022-08-02T14:34:10;5.47;;;2.95;;
23140;SDS011;11739;54.750;9.124;2022-08-02T14:36:37;11.38;;;8.25;;
23140;SDS011;11739;54.750;9.124;2022-08-02T14:39:05;3.97;;;3.17;;
23140;SDS011;11739;54.750;9.124;2022-08-02T14:41:31;4.63;;;3.63;;
23140;SDS011;11739;54.750;9.124;2022-08-02T14:44:21;5.55;;;3.88;;
23140;SDS011;11739;54.750;9.124;2022-08-02T14:46:47;6.97;;;3.90;;
23140;SDS011;11739;54.750;9.124;2022-08-02T14:49:17;7.35;;;4.38;;
23140;SDS011;11739;54.750;9.124;2022-08-02T14:51:51;5.95;;;4.20;;
23140;SDS011;11739;54.750;9.124;2022-08-02T14:54:21;7.75;;;4.82;;
23140;SDS011;11739;54.750;9.124;2022-08-02T14:56:56;7.80;;;4.60;;
23140;SDS011;11739;54.750;9.124;2022-08-02T14:59:23;6.03;;;4.22;;
23140;SDS011;11739;54.750;9.124;2022-08-02T15:01:50;5.55;;;4.15;;
23140;SDS011;11739;54.750;9.124;2022-08-02T15:04:16;7.57;;;4.15;;
23140;SDS011;11739;54.750;9.124;2022-08-02T15:06:43;5.10;;;4.15;;
23140;SDS011;11739;54.750;9.124;2022-08-02T15:09:09;6.75;;;4.47;;
23140;SDS011;11739;54.750;9.124;2022-08-02T15:11:36;7.97;;;4.55;;
23140;SDS011;11739;54.750;9.124;2022-08-02T15:14:13;6.10;;;4.05;;
23140;SDS011;11739;54.750;9.124;2022-08-02T15:16:40;7.07;;;4.25;;
23140;SDS011;11739;54.750;9.124;2022-08-02T15:19:21;7.85;;;4.55;;
23140;SDS011;11739;54.750;9.124;2022-08-02T15:21:50;6.90;;;4.13;;
23140;SDS011;11739;54.750;9.124;2022-08-02T15:24:19;5.25;;;4.40;;
23140;SDS011;11739;54.750;9.124;2022-08-02T15:26:46;5.50;;;4.68;;
23140;SDS011;11739;54.750;9.124;2022-08-02T15:29:13;6.78;;;5.30;;
23140;SDS011;11739;54.750;9.124;2022-08-02T15:31:39;5.90;;;5.25;;
23140;SDS011;11739;54.750;9.124;2022-08-02T15:34:07;5.90;;;5.10;;
23140;SDS011;11739;54.750;9.124;2022-08-02T15:36:33;5.97;;;4.57;;
23140;SDS011;11739;54.750;9.124;2022-08-02T15:39:00;7.65;;;5.15;;
23140;SDS011;11739;54.750;9.124;2022-08-02T15:41:26;19.52;;;6.15;;
23140;SDS011;11739;54.750;9.124;2022-08-02T15:43:53;6.45;;;5.22;;
23140;SDS011;11739;54.750;9.124;2022-08-02T15:48:57;6.75;;;5.40;;
23140;SDS011;11739;54.750;9.124;2022-08-02T15:51:25;5.68;;;5.18;;
23140;SDS011;11739;54.750;9.124;2022-08-02T15:53:52;5.50;;;4.90;;
23140;SDS011;11739;54.750;9.124;2022-08-02T15:56:18;5.15;;;4.47;;
23140;SDS011;11739;54.750;9.124;2022-08-02T15:58:49;5.55;;;4.30;;
23140;SDS011;11739;54.750;9.124;2022-08-02T16:01:21;5.43;;;4.88;;
23140;SDS011;11739;54.750;9.124;2022-08-02T16:03:47;6.82;;;5.22;;
23140;SDS011;11739;54.750;9.124;2022-08-02T16:06:14;6.03;;;5.20;;
23140;SDS011;11739;54.750;9.124;2022-08-02T16:08:41;6.75;;;5.30;;
23140;SDS011;11739;54.750;9.124;2022-08-02T16:11:19;5.55;;;5.05;;
23140;SDS011;11739;54.750;9.124;2022-08-02T16:13:46;6.00;;;4.60;;
23140;SDS011;11739;54.750;9.124;2022-08-02T16:16:23;5.70;;;5.15;;
23140;SDS011;11739;54.750;9.124;2022-08-02T16:18:53;6.68;;;4.70;;
23140;SDS011;11739;54.750;9.124;2022-08-02T16:21:20;8.35;;;5.10;;
23140;SDS011;11739;54.750;9.124;2022-08-02T16:23:48;5.93;;;5.00;;
23140;SDS011;11739;54.750;9.124;2022-08-02T16:26:28;5.13;;;4.63;;
23140;SDS011;11739;54.750;9.124;2022-08-02T16:28:55;5.25;;;4.40;;
23140;SDS011;11739;54.750;9.124;2022-08-02T16:31:22;5.00;;;4.30;;
23140;SDS011;11739;54.750;9.124;2022-08-02T16:33:49;7.13;;;5.20;;
23140;SDS011;11739;54.750;9.124;2022-08-02T16:36:21;6.00;;;4.88;;
23140;SDS011;11739;54.750;9.124;2022-08-02T16:38:48;5.40;;;4.90;;
23140;SDS011;11739;54.750;9.124;2022-08-02T16:41:14;5.63;;;5.03;;
23140;SDS011;11739;54.750;9.124;2022-08-02T16:43:41;9.07;;;5.03;;
23140;SDS011;11739;54.750;9.124;2022-08-02T16:46:08;6.05;;;4.82;;
23140;SDS011;11739;54.750;9.124;2022-08-02T16:48:35;5.75;;;5.13;;
23140;SDS011;11739;54.750;9.124;2022-08-02T16:51:02;6.93;;;5.07;;
23140;SDS011;11739;54.750;9.124;2022-08-02T16:53:29;5.55;;;5.05;;
23140;SDS011;11739;54.750;9.124;2022-08-02T16:56:03;6.53;;;5.07;;
23140;SDS011;11739;54.750;9.124;2022-08-02T16:58:30;10.10;;;5.03;;
23140;SDS011;11739;54.750;9.124;2022-08-02T17:00:56;9.07;;;5.43;;
23140;SDS011;11739;54.750;9.124;2022-08-02T17:03:23;5.60;;;5.10;;
23140;SDS011;11739;54.750;9.124;2022-08-02T17:06:09;6.10;;;4.85;;
23140;SDS011;11739;54.750;9.124;2022-08-02T17:08:41;6.13;;;5.30;;
23140;SDS011;11739;54.750;9.124;2022-08-02T17:11:19;6.97;;;6.13;;
23140;SDS011;11739;54.750;9.124;2022-08-02T17:13:49;6.38;;;5.78;;
23140;SDS011;11739;54.750;9.124;2022-08-02T17:16:15;6.55;;;5.38;;
23140;SDS011;11739;54.750;9.124;2022-08-02T17:18:50;6.78;;;5.57;;
23140;SDS011;11739;54.750;9.124;2022-08-02T17:21:18;9.20;;;6.40;;
23140;SDS011;11739;54.750;9.124;2022-08-02T17:23:44;9.30;;;6.57;;
23140;SDS011;11739;54.750;9.124;2022-08-02T17:26:31;10.82;;;6.53;;
23140;SDS011;11739;54.750;9.124;2022-08-02T17:28:58;8.18;;;6.43;;
23140;SDS011;11739;54.750;9.124;2022-08-02T17:31:46;7.30;;;6.60;;
23140;SDS011;11739;54.750;9.124;2022-08-02T17:34:31;7.38;;;6.38;;
23140;SDS011;11739;54.750;9.124;2022-08-02T17:36:58;7.30;;;6.60;;
23140;SDS011;11739;54.750;9.124;2022-08-02T17:39:24;8.13;;;7.32;;
23140;SDS011;11739;54.750;9.124;2022-08-02T17:41:59;7.78;;;6.97;;
23140;SDS011;11739;54.750;9.124;2022-08-02T17:44:26;6.97;;;6.00;;
23140;SDS011;11739;54.750;9.124;2022-08-02T17:47:13;6.97;;;6.35;;
23140;SDS011;11739;54.750;9.124;2022-08-02T17:49:40;6.47;;;5.78;;
23140;SDS011;11739;54.750;9.124;2022-08-02T17:52:26;6.63;;;6.03;;
23140;SDS011;11739;54.750;9.124;2022-08-02T17:55:13;7.32;;;6.60;;
23140;SDS011;11739;54.750;9.124;2022-08-02T17:57:42;7.18;;;6.45;;
23140;SDS011;11739;54.750;9.124;2022-08-02T18:00:24;8.07;;;7.38;;
23140;SDS011;11739;54.750;9.124;2022-08-02T18:03:17;7.40;;;6.67;;
23140;SDS011;11739;54.750;9.124;2022-08-02T18:05:43;7.80;;;7.13;;
23140;SDS011;11739;54.750;9.124;2022-08-02T18:08:21;8.27;;;7.47;;
23140;SDS011;11739;54.750;9.124;2022-08-02T18:10:49;7.45;;;6.75;;
23140;SDS011;11739;54.750;9.124;2022-08-02T18:13:17;7.90;;;6.82;;
23140;SDS011;11739;54.750;9.124;2022-08-02T18:15:44;7.53;;;6.70;;
23140;SDS011;11739;54.750;9.124;2022-08-02T18:18:11;7.47;;;6.68;;
23140;SDS011;11739;54.750;9.124;2022-08-02T18:20:39;8.00;;;6.50;;
23140;SDS011;11739;54.750;9.124;2022-08-02T18:23:06;7.70;;;6.20;;
23140;SDS011;11739;54.750;9.124;2022-08-02T18:25:38;7.97;;;5.82;;
23140;SDS011;11739;54.750;9.124;2022-08-02T18:28:13;8.07;;;5.55;;
23140;SDS011;11739;54.750;9.124;2022-08-02T18:30:40;5.32;;;4.80;;
23140;SDS011;11739;54.750;9.124;2022-08-02T18:33:07;5.93;;;5.40;;
23140;SDS011;11739;54.750;9.124;2022-08-02T18:35:53;7.68;;;5.55;;
23140;SDS011;11739;54.750;9.124;2022-08-02T18:38:21;5.93;;;5.07;;
23140;SDS011;11739;54.750;9.124;2022-08-02T18:40:48;6.45;;;5.80;;
23140;SDS011;11739;54.750;9.124;2022-08-02T18:43:16;5.90;;;5.40;;
23140;SDS011;11739;54.750;9.124;2022-08-02T18:45:50;5.78;;;5.28;;
23140;SDS011;11739;54.750;9.124;2022-08-02T18:48:36;7.38;;;6.65;;
23140;SDS011;11739;54.750;9.124;2022-08-02T18:51:03;6.70;;;6.00;;
23140;SDS011;11739;54.750;9.124;2022-08-02T18:53:31;6.55;;;5.93;;
23140;SDS011;11739;54.750;9.124;2022-08-02T18:56:08;6.32;;;5.72;;
23140;SDS011;11739;54.750;9.124;2022-08-02T18:58:46;6.88;;;6.28;;
23140;SDS011;11739;54.750;9.124;2022-08-02T19:01:13;6.50;;;5.97;;
23140;SDS011;11739;54.750;9.124;2022-08-02T19:03:58;7.80;;;6.35;;
23140;SDS011;11739;54.750;9.124;2022-08-02T19:06:25;7.57;;;6.25;;
23140;SDS011;11739;54.750;9.124;2022-08-02T19:08:52;7.35;;;6.65;;
23140;SDS011;11739;54.750;9.124;2022-08-02T19:11:36;9.07;;;7.68;;
23140;SDS011;11739;54.750;9.124;2022-08-02T19:14:03;7.13;;;6.47;;
23140;SDS011;11739;54.750;9.124;2022-08-02T19:16:30;7.65;;;6.85;;
23140;SDS011;11739;54.750;9.124;2022-08-02T19:19:03;7.93;;;6.93;;
23140;SDS011;11739;54.750;9.124;2022-08-02T19:21:32;7.88;;;7.18;;
23140;SDS011;11739;54.750;9.124;2022-08-02T19:24:19;8.23;;;7.43;;
23140;SDS011;11739;54.750;9.124;2022-08-02T19:26:45;8.23;;;7.35;;
23140;SDS011;11739;54.750;9.124;2022-08-02T19:29:18;8.40;;;7.10;;
23140;SDS011;11739;54.750;9.124;2022-08-02T19:32:05;9.60;;;8.65;;
23140;SDS011;11739;54.750;9.124;2022-08-02T19:34:52;8.95;;;7.57;;
23140;SDS011;11739;54.750;9.124;2022-08-02T19:37:20;8.50;;;7.57;;
23140;SDS011;11739;54.750;9.124;2022-08-02T19:39:47;9.20;;;8.30;;
23140;SDS011;11739;54.750;9.124;2022-08-02T19:42:15;8.93;;;8.02;;
23140;SDS011;11739;54.750;9.124;2022-08-02T19:44:42;8.02;;;7.32;;
23140;SDS011;11739;54.750;9.124;2022-08-02T19:47:11;10.68;;;8.18;;
23140;SDS011;11739;54.750;9.124;2022-08-02T19:52:13;9.68;;;7.80;;
23140;SDS011;11739;54.750;9.124;2022-08-02T19:57:21;8.00;;;7.20;;
23140;SDS011;11739;54.750;9.124;2022-08-02T19:59:50;7.68;;;6.97;;
23140;SDS011;11739;54.750;9.124;2022-08-02T20:02:17;9.05;;;6.85;;
23140;SDS011;11739;54.750;9.124;2022-08-02T20:04:44;7.30;;;6.60;;
23140;SDS011;11739;54.750;9.124;2022-08-02T20:07:15;7.30;;;6.60;;
23140;SDS011;11739;54.750;9.124;2022-08-02T20:10:02;8.32;;;7.55;;
23140;SDS011;11739;54.750;9.124;2022-08-02T20:12:29;8.20;;;6.57;;
23140;SDS011;11739;54.750;9.124;2022-08-02T20:15:02;8.02;;;7.20;;
23140;SDS011;11739;54.750;9.124;2022-08-02T20:17:49;8.05;;;7.25;;
23140;SDS011;11739;54.750;9.124;2022-08-02T20:20:16;7.22;;;6.35;;
23140;SDS011;11739;54.750;9.124;2022-08-02T20:22:43;9.15;;;7.60;;
23140;SDS011;11739;54.750;9.124;2022-08-02T20:25:51;6.82;;;6.32;;
23140;SDS011;11739;54.750;9.124;2022-08-02T20:28:38;7.07;;;6.38;;
23140;SDS011;11739;54.750;9.124;2022-08-02T20:31:05;8.50;;;6.68;;
23140;SDS011;11739;54.750;9.124;2022-08-02T20:33:34;7.30;;;6.60;;
23140;SDS011;11739;54.750;9.124;2022-08-02T20:36:20;7.45;;;6.72;;
23140;SDS011;11739;54.750;9.124;2022-08-02T20:38:47;7.95;;;7.18;;
23140;SDS011;11739;54.750;9.124;2022-08-02T20:41:13;8.18;;;7.47;;
23140;SDS011;11739;54.750;9.124;2022-08-02T20:43:47;7.53;;;6.85;;
23140;SDS011;11739;54.750;9.124;2022-08-02T20:46:13;8.07;;;7.00;;
23140;SDS011;11739;54.750;9.124;2022-08-02T20:48:40;8.23;;;7.10;;
23140;SDS011;11739;54.750;9.124;2022-08-02T20:51:07;7.85;;;7.13;;
23140;SDS011;11739;54.750;9.124;2022-08-02T20:53:37;8.13;;;7.43;;
23140;SDS011;11739;54.750;9.124;2022-08-02T20:56:22;7.97;;;7.18;;
23140;SDS011;11739;54.750;9.124;2022-08-02T20:58:48;8.57;;;7.80;;
23140;SDS011;11739;54.750;9.124;2022-08-02T21:01:17;7.70;;;7.07;;
23140;SDS011;11739;54.750;9.124;2022-08-02T21:03:47;8.45;;;7.72;;
23140;SDS011;11739;54.750;9.124;2022-08-02T21:06:24;11.05;;;7.53;;
23140;SDS011;11739;54.750;9.124;2022-08-02T21:08:53;10.93;;;8.05;;
23140;SDS011;11739;54.750;9.124;2022-08-02T21:11:20;8.93;;;8.13;;
23140;SDS011;11739;54.750;9.124;2022-08-02T21:13:58;9.23;;;8.35;;
23140;SDS011;11739;54.750;9.124;2022-08-02T21:16:34;9.25;;;8.20;;
23140;SDS011;11739;54.750;9.124;2022-08-02T21:19:01;11.20;;;8.70;;
23140;SDS011;11739;54.750;9.124;2022-08-02T21:21:27;10.82;;;8.52;;
23140;SDS011;11739;54.750;9.124;2022-08-02T21:23:55;8.93;;;8.02;;
23140;SDS011;11739;54.750;9.124;2022-08-02T21:26:22;8.90;;;8.00;;
23140;SDS011;11739;54.750;9.124;2022-08-02T21:28:55;9.68;;;8.60;;
23140;SDS011;11739;54.750;9.124;2022-08-02T21:31:23;8.77;;;7.97;;
23140;SDS011;11739;54.750;9.124;2022-08-02T21:33:55;10.73;;;8.80;;
23140;SDS011;11739;54.750;9.124;2022-08-02T21:36:29;9.48;;;8.50;;
23140;SDS011;11739;54.750;9.124;2022-08-02T21:39:03;9.23;;;7.97;;
23140;SDS011;11739;54.750;9.124;2022-08-02T21:41:50;10.38;;;9.20;;
23140;SDS011;11739;54.750;9.124;2022-08-02T21:44:18;10.32;;;9.23;;
23140;SDS011;11739;54.750;9.124;2022-08-02T21:46:46;10.32;;;9.45;;
23140;SDS011;11739;54.750;9.124;2022-08-02T21:49:14;10.32;;;9.32;;
23140;SDS011;11739;54.750;9.124;2022-08-02T21:51:42;9.63;;;8.73;;
23140;SDS011;11739;54.750;9.124;2022-08-02T21:54:14;10.80;;;9.70;;
23140;SDS011;11739;54.750;9.124;2022-08-02T21:56:44;10.48;;;9.57;;
23140;SDS011;11739;54.750;9.124;2022-08-02T21:59:13;11.70;;;9.50;;
23140;SDS011;11739;54.750;9.124;2022-08-02T22:01:41;11.20;;;9.73;;
23140;SDS011;11739;54.750;9.124;2022-08-02T22:04:18;11.18;;;9.98;;
23140;SDS011;11739;54.750;9.124;2022-08-02T22:06:45;12.90;;;10.88;;
23140;SDS011;11739;54.750;9.124;2022-08-02T22:09:32;11.55;;;10.27;;
23140;SDS011;11739;54.750;9.124;2022-08-02T22:12:11;12.15;;;10.90;;
23140;SDS011;11739;54.750;9.124;2022-08-02T22:14:44;15.52;;;11.38;;
23140;SDS011;11739;54.750;9.124;2022-08-02T22:17:18;11.63;;;10.60;;
23140;SDS011;11739;54.750;9.124;2022-08-02T22:19:45;11.95;;;10.60;;
23140;SDS011;11739;54.750;9.124;2022-08-02T22:24:45;11.02;;;9.75;;
23140;SDS011;11739;54.750;9.124;2022-08-02T22:27:12;13.00;;;11.75;;
23140;SDS011;11739;54.750;9.124;2022-08-02T22:29:39;10.68;;;9.65;;
23140;SDS011;11739;54.750;9.124;2022-08-02T22:32:09;11.57;;;10.48;;
23140;SDS011;11739;54.750;9.124;2022-08-02T22:34:46;12.32;;;11.13;;
23140;SDS011;11739;54.750;9.124;2022-08-02T22:37:17;11.18;;;10.13;;
23140;SDS011;11739;54.750;9.124;2022-08-02T22:40:04;12.18;;;11.07;;
23140;SDS011;11739;54.750;9.124;2022-08-02T22:42:34;12.32;;;11.32;;
23140;SDS011;11739;54.750;9.124;2022-08-02T22:45:05;13.02;;;11.85;;
23140;SDS011;11739;54.750;9.124;2022-08-02T22:47:32;11.02;;;10.00;;
23140;SDS011;11739;54.750;9.124;2022-08-02T22:50:03;11.95;;;10.85;;
23140;SDS011;11739;54.750;9.124;2022-08-02T22:52:37;13.10;;;11.80;;
23140;SDS011;11739;54.750;9.124;2022-08-02T22:55:03;12.50;;;11.30;;
23140;SDS011;11739;54.750;9.124;2022-08-02T22:57:31;11.52;;;10.43;;
23140;SDS011;11739;54.750;9.124;2022-08-02T23:00:18;12.18;;;11.18;;
23140;SDS011;11739;54.750;9.124;2022-08-02T23:02:45;12.43;;;11.25;;
23140;SDS011;11739;54.750;9.124;2022-08-02T23:05:12;12.45;;;11.25;;
23140;SDS011;11739;54.750;9.124;2022-08-02T23:07:38;14.93;;;11.25;;
23140;SDS011;11739;54.750;9.124;2022-08-02T23:10:05;12.82;;;11.50;;
23140;SDS011;11739;54.750;9.124;2022-08-02T23:12:32;12.60;;;11.48;;
23140;SDS011;11739;54.750;9.124;2022-08-02T23:14:59;13.60;;;12.35;;
23140;SDS011;11739;54.750;9.124;2022-08-02T23:17:26;11.35;;;10.35;;
23140;SDS011;11739;54.750;9.124;2022-08-02T23:20:12;13.20;;;11.85;;
23140;SDS011;11739;54.750;9.124;2022-08-02T23:22:38;13.15;;;11.95;;
23140;SDS011;11739;54.750;9.124;2022-08-02T23:25:05;12.98;;;11.57;;
23140;SDS011;11739;54.750;9.124;2022-08-02T23:27:33;12.18;;;11.07;;
23140;SDS011;11739;54.750;9.124;2022-08-02T23:30:00;12.45;;;11.25;;
23140;SDS011;11739;54.750;9.124;2022-08-02T23:32:26;12.65;;;11.35;;
23140;SDS011;11739;54.750;9.124;2022-08-02T23:34:53;13.20;;;11.95;;
23140;SDS011;11739;54.750;9.124;2022-08-02T23:37:21;12.57;;;11.45;;
23140;SDS011;11739;54.750;9.124;2022-08-02T23:39:48;13.52;;;11.98;;
23140;SDS011;11739;54.750;9.124;2022-08-02T23:42:15;13.93;;;12.52;;
23140;SDS011;11739;54.750;9.124;2022-08-02T23:44:42;13.57;;;12.18;;
23140;SDS011;11739;54.750;9.124;2022-08-02T23:47:09;14.30;;;12.80;;
23140;SDS011;11739;54.750;9.124;2022-08-02T23:49:36;14.07;;;12.57;;
23140;SDS011;11739;54.750;9.124;2022-08-02T23:52:02;13.20;;;11.93;;
23140;SDS011;11739;54.750;9.124;2022-08-02T23:54:29;13.57;;;12.27;;
23140;SDS011;11739;54.750;9.124;2022-08-02T23:56:55;13.88;;;12.30;;
23140;SDS011;11739;54.750;9.124;2022-08-02T23:59:22;13.32;;;12.05;;
